Time;durP1;ratioP1;P1;durP2;ratioP2;P2;SDS_P1;SDS_P2;PMS_P1;PMS_P2;Temp;Humidity;BMP_temperature;BMP_pressure;BME280_temperature;BME280_humidity;BME280_pressure;Samples;Min_cycle;Max_cycle;Signal;HPM_P1;HPM_P2
2021/10/10 00:01:49;;;;;;;14.80;6.90;;;5.40;97.30;;;;;;5055378;28;20614;-77
2021/10/10 00:04:15;;;;;;;22.50;8.47;;;5.30;97.30;;;;;;5059760;28;20195;-77
2021/10/10 00:06:40;;;;;;;11.60;6.87;;;5.30;97.30;;;;;;5054647;28;20234;-77
2021/10/10 00:09:06;;;;;;;17.30;7.63;;;5.20;97.30;;;;;;5057118;28;20659;-77
2021/10/10 00:11:32;;;;;;;20.23;8.87;;;5.20;97.30;;;;;;5062221;28;20585;-75
2021/10/10 00:13:58;;;;;;;14.43;7.73;;;5.20;97.30;;;;;;5058640;28;20624;-78
2021/10/10 00:16:23;;;;;;;18.20;7.10;;;5.10;97.30;;;;;;5057729;28;20204;-77
2021/10/10 00:18:49;;;;;;;16.03;7.77;;;5.10;97.30;;;;;;5057565;28;20418;-77
2021/10/10 00:21:15;;;;;;;13.63;6.80;;;5.10;97.30;;;;;;5061015;28;20175;-77
2021/10/10 00:23:41;;;;;;;17.37;7.30;;;5.10;97.30;;;;;;5057186;28;20377;-77
2021/10/10 00:26:07;;;;;;;13.87;7.70;;;5.10;97.30;;;;;;5058868;28;20425;-77
2021/10/10 00:28:32;;;;;;;21.90;7.13;;;5.10;97.30;;;;;;5058127;28;20557;-77
2021/10/10 00:30:58;;;;;;;15.10;7.63;;;5.10;97.30;;;;;;5059581;28;20549;-77
2021/10/10 00:33:25;;;;;;;13.17;6.97;;;5.10;97.30;;;;;;5054293;28;20206;-77
2021/10/10 00:35:50;;;;;;;16.60;8.00;;;5.20;97.30;;;;;;5066237;28;20184;-77
2021/10/10 00:38:16;;;;;;;17.80;8.00;;;5.20;97.30;;;;;;5071593;28;20447;-78
2021/10/10 00:40:42;;;;;;;20.50;7.70;;;5.20;97.30;;;;;;5073131;28;20681;-77
2021/10/10 00:43:08;;;;;;;17.30;7.37;;;5.20;97.30;;;;;;5059450;28;20545;-77
2021/10/10 00:45:33;;;;;;;16.17;8.20;;;5.20;97.30;;;;;;5052725;28;20758;-77
2021/10/10 00:48:00;;;;;;;18.23;8.47;;;5.20;97.30;;;;;;5060718;28;20769;-78
2021/10/10 00:50:27;;;;;;;18.90;8.10;;;5.10;97.30;;;;;;5073058;28;20187;-77
2021/10/10 00:52:53;;;;;;;13.63;7.37;;;5.10;97.30;;;;;;5057566;28;20513;-78
2021/10/10 00:55:21;;;;;;;20.13;8.00;;;5.10;97.30;;;;;;5053372;28;20532;-78
2021/10/10 00:57:49;;;;;;;19.07;8.77;;;5.10;97.30;;;;;;5063384;28;20226;-78
2021/10/10 01:00:15;;;;;;;18.87;7.80;;;5.10;97.30;;;;;;5071903;28;20449;-79
2021/10/10 01:02:42;;;;;;;18.47;7.97;;;5.10;97.30;;;;;;5051769;28;20415;-78
2021/10/10 01:05:08;;;;;;;14.40;8.17;;;5.10;97.30;;;;;;5052922;28;20434;-78
2021/10/10 01:07:33;;;;;;;17.37;8.50;;;5.10;97.30;;;;;;5057150;28;20476;-77
2021/10/10 01:10:02;;;;;;;15.90;7.60;;;5.10;97.30;;;;;;5053078;28;20812;-78
2021/10/10 01:12:28;;;;;;;16.73;8.60;;;5.10;97.30;;;;;;5062485;28;20179;-78
2021/10/10 01:14:55;;;;;;;18.30;9.33;;;5.10;97.30;;;;;;5072766;28;20463;-78
2021/10/10 01:17:23;;;;;;;17.40;8.43;;;5.10;97.30;;;;;;5064202;28;20457;-78
2021/10/10 01:19:50;;;;;;;17.87;8.47;;;5.20;97.30;;;;;;5069470;28;20429;-76
2021/10/10 01:22:16;;;;;;;21.50;8.33;;;5.20;97.30;;;;;;5053911;28;20947;-77
2021/10/10 01:24:41;;;;;;;17.00;7.77;;;5.20;97.30;;;;;;5051660;28;20443;-77
2021/10/10 01:27:07;;;;;;;22.67;8.60;;;5.10;97.30;;;;;;5051710;28;20235;-78
2021/10/10 01:29:32;;;;;;;15.27;8.37;;;5.20;97.30;;;;;;5051801;28;20275;-77
2021/10/10 01:31:58;;;;;;;18.57;9.17;;;5.10;97.30;;;;;;5076249;28;20194;-78
2021/10/10 01:34:23;;;;;;;18.70;9.70;;;5.10;97.30;;;;;;5051444;28;20325;-78
2021/10/10 01:36:49;;;;;;;16.80;7.90;;;5.10;97.30;;;;;;5056527;28;20198;-79
2021/10/10 01:39:15;;;;;;;15.37;8.10;;;5.10;97.30;;;;;;5072078;28;20174;-78
2021/10/10 01:41:40;;;;;;;18.40;9.03;;;5.10;97.30;;;;;;5067676;28;20183;-77
2021/10/10 01:44:13;;;;;;;19.97;8.63;;;5.10;97.30;;;;;;5051947;28;20464;-78
2021/10/10 01:46:39;;;;;;;16.10;7.83;;;5.10;97.30;;;;;;5065925;28;20650;-77
2021/10/10 01:49:04;;;;;;;17.50;8.33;;;5.10;97.30;;;;;;5058213;28;20476;-78
2021/10/10 01:51:30;;;;;;;17.80;8.90;;;5.10;97.30;;;;;;5056929;28;20180;-78
2021/10/10 01:53:57;;;;;;;19.57;8.40;;;5.00;97.30;;;;;;5052268;28;20202;-78
2021/10/10 01:56:23;;;;;;;16.47;8.60;;;5.00;97.30;;;;;;5051885;28;20564;-77
2021/10/10 01:58:48;;;;;;;19.23;9.00;;;5.00;97.30;;;;;;5051789;28;20462;-77
2021/10/10 02:01:14;;;;;;;17.30;8.00;;;4.90;97.30;;;;;;5065155;28;20276;-78
2021/10/10 02:03:39;;;;;;;16.97;8.20;;;4.90;97.30;;;;;;5070943;28;20440;-76
2021/10/10 02:06:05;;;;;;;18.87;8.43;;;4.80;97.30;;;;;;5070962;28;20183;-76
2021/10/10 02:08:31;;;;;;;18.23;8.37;;;4.80;97.30;;;;;;5062220;28;20190;-77
2021/10/10 02:10:56;;;;;;;15.43;8.40;;;4.70;97.30;;;;;;5070247;28;20184;-77
2021/10/10 02:13:22;;;;;;;58.03;10.43;;;4.60;97.30;;;;;;5070136;28;20252;-77
2021/10/10 02:15:47;;;;;;;15.63;7.63;;;4.60;97.30;;;;;;5068566;28;20175;-78
2021/10/10 02:18:14;;;;;;;17.53;7.43;;;4.50;97.30;;;;;;5055537;28;20175;-78
2021/10/10 02:20:39;;;;;;;20.30;8.20;;;4.40;97.30;;;;;;5071396;28;20175;-78
2021/10/10 02:23:05;;;;;;;18.93;7.77;;;4.40;97.30;;;;;;5071479;28;20417;-77
2021/10/10 02:25:31;;;;;;;17.27;8.40;;;4.30;97.30;;;;;;5069408;28;20508;-77
2021/10/10 02:27:57;;;;;;;19.90;8.70;;;4.30;97.30;;;;;;5070459;28;20506;-78
2021/10/10 02:30:22;;;;;;;18.60;8.90;;;4.30;97.30;;;;;;5055690;28;20436;-77
2021/10/10 02:32:48;;;;;;;23.50;8.07;;;4.20;97.30;;;;;;5070394;28;20263;-77
2021/10/10 02:35:14;;;;;;;18.13;8.10;;;4.20;97.30;;;;;;5069317;28;20571;-78
2021/10/10 02:37:39;;;;;;;18.23;8.47;;;4.20;97.30;;;;;;5061270;28;20206;-77
2021/10/10 02:40:06;;;;;;;22.80;8.63;;;4.20;97.30;;;;;;5063664;28;20171;-77
2021/10/10 02:42:32;;;;;;;19.47;7.80;;;4.10;97.30;;;;;;5069916;28;20527;-77
2021/10/10 02:44:57;;;;;;;20.77;8.30;;;4.10;97.30;;;;;;5071175;28;20433;-78
2021/10/10 02:47:23;;;;;;;20.07;8.50;;;4.10;97.30;;;;;;5053232;28;20180;-77
2021/10/10 02:49:48;;;;;;;21.10;9.27;;;4.10;97.30;;;;;;5055998;28;20179;-77
2021/10/10 02:52:16;;;;;;;19.63;8.77;;;4.00;97.30;;;;;;5062309;28;20270;-77
2021/10/10 02:54:42;;;;;;;16.60;7.90;;;4.00;97.30;;;;;;5049759;28;20246;-78
2021/10/10 02:57:08;;;;;;;16.10;8.30;;;3.90;97.30;;;;;;5060698;28;20499;-78
2021/10/10 02:59:33;;;;;;;18.90;8.10;;;3.90;97.30;;;;;;5064283;28;20807;-78
2021/10/10 03:01:59;;;;;;;17.70;9.17;;;3.80;97.30;;;;;;5048599;28;20653;-78
2021/10/10 03:04:25;;;;;;;13.90;7.83;;;3.80;97.30;;;;;;5051046;28;20187;-79
2021/10/10 03:06:51;;;;;;;13.60;6.57;;;3.70;97.30;;;;;;5039835;28;20649;-78
2021/10/10 03:09:16;;;;;;;17.70;7.50;;;3.60;97.30;;;;;;5031053;28;20251;-77
2021/10/10 03:11:42;;;;;;;16.67;8.10;;;3.60;97.30;;;;;;5029836;28;20442;-77
2021/10/10 03:14:07;;;;;;;17.10;8.93;;;3.60;97.30;;;;;;5030922;28;20218;-78
2021/10/10 03:16:33;;;;;;;19.60;7.83;;;3.70;97.30;;;;;;5039323;28;20215;-77
2021/10/10 03:18:59;;;;;;;18.17;7.17;;;3.70;97.30;;;;;;5032757;28;20184;-78
2021/10/10 03:21:24;;;;;;;12.93;7.60;;;3.70;97.30;;;;;;5057075;28;20179;-77
2021/10/10 03:23:50;;;;;;;12.97;7.23;;;3.70;97.30;;;;;;5053563;28;20203;-78
2021/10/10 03:26:15;;;;;;;17.27;7.50;;;3.70;97.30;;;;;;5048432;28;20198;-78
2021/10/10 03:28:41;;;;;;;16.03;8.07;;;3.70;97.30;;;;;;5029769;28;20180;-78
2021/10/10 03:31:06;;;;;;;18.10;7.43;;;3.70;97.30;;;;;;5032986;28;20557;-79
2021/10/10 03:33:32;;;;;;;18.30;7.67;;;3.70;97.30;;;;;;5029634;28;20683;-78
2021/10/10 03:35:58;;;;;;;13.87;7.10;;;3.70;97.30;;;;;;5039910;28;20665;-77
2021/10/10 03:38:23;;;;;;;17.40;9.03;;;3.70;97.30;;;;;;5050812;28;20171;-77
2021/10/10 03:40:49;;;;;;;19.63;9.90;;;3.70;97.30;;;;;;5034446;28;20268;-77
2021/10/10 03:43:14;;;;;;;16.00;7.97;;;3.60;97.30;;;;;;5029558;28;20180;-78
2021/10/10 03:45:40;;;;;;;15.20;7.57;;;3.70;97.30;;;;;;5029630;28;20177;-77
2021/10/10 03:48:05;;;;;;;12.70;7.77;;;3.60;97.30;;;;;;5030570;28;20540;-78
2021/10/10 03:50:31;;;;;;;19.07;8.80;;;3.50;97.30;;;;;;5049829;28;20186;-77
2021/10/10 03:52:57;;;;;;;18.73;8.23;;;3.40;97.30;;;;;;5048428;28;20183;-77
2021/10/10 03:55:31;;;;;;;14.13;6.87;;;3.30;97.30;;;;;;5048720;28;20641;-77
2021/10/10 03:57:58;;;;;;;19.40;8.10;;;3.10;97.30;;;;;;5034384;28;20654;-76
2021/10/10 04:00:25;;;;;;;17.17;7.63;;;3.00;97.30;;;;;;5048943;28;20482;-77
2021/10/10 04:02:50;;;;;;;19.80;7.47;;;3.00;97.30;;;;;;5069534;28;20425;-77
2021/10/10 04:07:49;;;;;;;18.47;7.33;;;3.00;97.30;;;;;;5070367;28;20182;-77
2021/10/10 04:10:15;;;;;;;17.50;7.53;;;2.90;97.30;;;;;;5068938;28;20565;-77
2021/10/10 04:12:41;;;;;;;14.57;6.87;;;2.90;97.30;;;;;;5072251;28;20508;-77
2021/10/10 04:15:07;;;;;;;21.77;8.20;;;2.90;97.30;;;;;;5074052;28;20552;-77
2021/10/10 04:17:33;;;;;;;17.70;7.67;;;2.80;97.30;;;;;;5061926;28;20723;-77
2021/10/10 04:19:58;;;;;;;16.07;6.97;;;2.80;97.30;;;;;;5057526;28;20464;-77
2021/10/10 04:22:24;;;;;;;18.63;7.83;;;2.70;97.30;;;;;;5073301;28;20535;-78
2021/10/10 04:24:49;;;;;;;32.83;8.90;;;2.60;97.30;;;;;;5058752;28;20751;-79
2021/10/10 04:27:15;;;;;;;20.43;8.73;;;2.60;97.30;;;;;;5061125;28;20175;-78
2021/10/10 04:29:41;;;;;;;19.43;8.27;;;2.50;97.30;;;;;;5065484;28;20301;-78
2021/10/10 04:32:06;;;;;;;19.63;8.37;;;2.50;97.30;;;;;;5052678;28;20233;-78
2021/10/10 04:34:32;;;;;;;20.80;9.77;;;2.40;97.30;;;;;;5052644;28;20293;-78
2021/10/10 04:36:57;;;;;;;20.67;9.10;;;2.40;97.30;;;;;;5055001;28;20219;-79
2021/10/10 04:39:23;;;;;;;20.40;9.43;;;2.40;97.30;;;;;;5053654;28;20184;-79
2021/10/10 04:41:49;;;;;;;24.77;9.77;;;2.30;97.30;;;;;;5052385;28;20179;-79
2021/10/10 04:44:14;;;;;;;22.63;8.70;;;2.30;97.30;;;;;;5069260;28;20195;-78
2021/10/10 04:46:40;;;;;;;20.57;9.00;;;2.30;97.30;;;;;;5069145;28;20250;-79
2021/10/10 04:49:05;;;;;;;21.70;9.90;;;2.30;97.30;;;;;;5052237;28;20191;-79
2021/10/10 04:51:31;;;;;;;20.47;8.63;;;2.30;97.30;;;;;;5052837;28;20226;-78
2021/10/10 04:53:57;;;;;;;25.77;9.97;;;2.30;97.30;;;;;;5063945;28;20203;-78
2021/10/10 04:56:22;;;;;;;15.70;7.13;;;2.30;97.30;;;;;;5070406;28;20579;-79
2021/10/10 04:58:48;;;;;;;18.30;8.73;;;2.30;97.30;;;;;;5072373;28;20817;-78
2021/10/10 05:01:14;;;;;;;24.37;8.30;;;2.20;97.30;;;;;;5071640;28;20281;-78
2021/10/10 05:03:39;;;;;;;17.93;8.40;;;2.20;97.30;;;;;;5063709;28;20205;-78
2021/10/10 05:06:05;;;;;;;16.67;7.20;;;2.20;97.30;;;;;;5053597;28;20203;-77
2021/10/10 05:08:31;;;;;;;17.27;7.20;;;2.20;97.30;;;;;;5052264;28;20527;-77
2021/10/10 05:10:56;;;;;;;14.80;7.80;;;2.10;97.30;;;;;;5052012;28;20230;-77
2021/10/10 05:13:22;;;;;;;13.40;8.00;;;2.10;97.30;;;;;;5073819;28;20179;-77
2021/10/10 05:15:47;;;;;;;17.27;7.40;;;2.10;97.30;;;;;;5052037;28;20187;-76
2021/10/10 05:18:13;;;;;;;20.40;7.80;;;2.10;97.30;;;;;;5061236;28;20207;-77
2021/10/10 05:20:38;;;;;;;17.37;8.07;;;2.10;97.30;;;;;;5072841;28;20179;-77
2021/10/10 05:23:04;;;;;;;18.40;7.57;;;2.00;97.30;;;;;;5070557;28;20393;-77
2021/10/10 05:25:30;;;;;;;17.13;7.40;;;2.00;97.30;;;;;;5060661;28;20171;-77
2021/10/10 05:27:55;;;;;;;20.83;8.10;;;2.00;97.30;;;;;;5064712;28;20176;-77
2021/10/10 05:30:21;;;;;;;26.13;8.93;;;2.00;97.30;;;;;;5057590;28;20192;-77
2021/10/10 05:32:47;;;;;;;19.33;7.77;;;2.00;97.30;;;;;;5051335;28;20191;-76
2021/10/10 05:35:12;;;;;;;18.33;8.07;;;1.90;97.30;;;;;;5051296;28;20242;-76
2021/10/10 05:37:38;;;;;;;15.87;7.50;;;1.90;97.30;;;;;;5054888;28;20203;-77
2021/10/10 05:40:04;;;;;;;16.50;7.67;;;1.90;97.30;;;;;;5071015;28;20183;-77
2021/10/10 05:42:30;;;;;;;21.63;7.47;;;1.90;97.30;;;;;;5070889;28;20190;-77
2021/10/10 05:44:56;;;;;;;17.10;7.73;;;1.90;97.30;;;;;;5064679;28;20430;-77
2021/10/10 05:47:22;;;;;;;15.77;7.67;;;1.90;97.30;;;;;;5071092;28;20429;-76
2021/10/10 05:49:47;;;;;;;18.60;7.60;;;2.00;97.30;;;;;;5072790;28;20255;-76
2021/10/10 05:52:13;;;;;;;17.67;8.00;;;2.00;97.30;;;;;;5062615;28;20190;-76
2021/10/10 05:54:39;;;;;;;25.20;8.47;;;2.00;97.30;;;;;;5062383;28;20214;-76
2021/10/10 05:57:08;;;;;;;16.53;7.83;;;2.00;97.30;;;;;;5056667;28;20372;-76
2021/10/10 05:59:34;;;;;;;21.60;9.70;;;2.00;97.30;;;;;;5058868;28;20432;-77
2021/10/10 06:02:03;;;;;;;20.83;8.30;;;2.00;97.30;;;;;;5066026;28;20444;-77
2021/10/10 06:04:29;;;;;;;19.57;8.80;;;2.00;97.30;;;;;;5056207;28;21310;-78
2021/10/10 06:06:54;;;;;;;16.60;8.10;;;2.00;97.30;;;;;;5051603;28;20426;-76
2021/10/10 06:09:20;;;;;;;15.47;9.00;;;2.10;97.30;;;;;;5051355;28;20509;-77
2021/10/10 06:11:46;;;;;;;15.13;7.17;;;2.10;97.30;;;;;;5057175;28;20617;-77
2021/10/10 06:14:12;;;;;;;17.70;7.53;;;2.10;97.30;;;;;;5067206;28;20203;-77
2021/10/10 06:16:38;;;;;;;17.23;8.50;;;2.20;97.30;;;;;;5056217;28;20901;-76
2021/10/10 06:19:04;;;;;;;19.17;7.83;;;2.20;97.30;;;;;;5063825;28;20508;-77
2021/10/10 06:21:30;;;;;;;18.20;7.60;;;2.20;97.30;;;;;;5059398;28;20473;-77
2021/10/10 06:23:57;;;;;;;25.43;10.20;;;2.20;97.30;;;;;;5058184;28;20445;-76
2021/10/10 06:26:23;;;;;;;17.60;8.40;;;2.30;97.30;;;;;;5061942;28;20454;-77
2021/10/10 06:28:49;;;;;;;18.97;8.27;;;2.30;97.30;;;;;;5061251;28;20433;-78
2021/10/10 06:31:15;;;;;;;19.00;7.80;;;2.40;97.30;;;;;;5060797;28;20664;-76
2021/10/10 06:33:40;;;;;;;19.83;9.40;;;2.50;97.30;;;;;;5063442;28;20577;-76
2021/10/10 06:36:06;;;;;;;14.83;8.20;;;2.50;97.30;;;;;;5061324;28;20370;-77
2021/10/10 06:38:32;;;;;;;21.07;8.60;;;2.60;97.30;;;;;;5060263;28;20614;-77
2021/10/10 06:40:57;;;;;;;21.23;9.00;;;2.70;97.30;;;;;;5058979;28;20180;-75
2021/10/10 06:43:23;;;;;;;17.03;8.70;;;2.80;97.30;;;;;;5058956;28;20416;-77
2021/10/10 06:45:49;;;;;;;21.53;8.07;;;2.90;97.30;;;;;;5058608;28;20175;-77
2021/10/10 06:48:14;;;;;;;21.53;9.63;;;3.00;97.30;;;;;;5056578;28;20411;-78
2021/10/10 06:50:40;;;;;;;20.97;9.07;;;3.10;97.30;;;;;;5057263;28;20186;-77
2021/10/10 06:53:06;;;;;;;17.90;9.50;;;3.10;97.30;;;;;;5063744;28;20260;-77
2021/10/10 06:55:32;;;;;;;19.57;10.03;;;3.30;97.30;;;;;;5062866;28;20497;-77
2021/10/10 06:57:57;;;;;;;24.03;9.77;;;3.40;97.30;;;;;;5059431;28;20278;-77
2021/10/10 07:00:23;;;;;;;22.17;9.73;;;3.50;97.30;;;;;;5057750;28;20219;-77
2021/10/10 07:02:48;;;;;;;17.40;9.00;;;3.60;97.30;;;;;;5057609;28;20644;-77
2021/10/10 07:05:16;;;;;;;23.03;10.37;;;3.80;97.30;;;;;;5057787;28;20708;-77
2021/10/10 07:07:42;;;;;;;23.37;10.37;;;3.90;97.30;;;;;;5058383;28;20633;-77
2021/10/10 07:10:09;;;;;;;19.67;9.97;;;4.00;97.30;;;;;;5060704;28;20424;-79
2021/10/10 07:12:35;;;;;;;26.80;10.23;;;4.20;97.30;;;;;;5064716;28;21001;-77
2021/10/10 07:15:03;;;;;;;21.90;9.30;;;4.30;97.30;;;;;;5065881;28;20441;-78
2021/10/10 07:17:29;;;;;;;20.60;10.90;;;4.40;97.30;;;;;;5058389;28;20607;-78
2021/10/10 07:22:30;;;;;;;20.90;10.50;;;4.70;97.30;;;;;;5059413;28;20480;-77
2021/10/10 07:27:21;;;;;;;20.63;10.17;;;4.90;97.30;;;;;;5061406;28;20425;-78
2021/10/10 07:29:47;;;;;;;19.80;9.70;;;5.10;97.30;;;;;;5062720;28;20513;-77
2021/10/10 07:32:12;;;;;;;27.30;10.57;;;5.20;97.30;;;;;;5057268;28;20230;-78
2021/10/10 07:34:38;;;;;;;22.83;10.00;;;5.40;97.30;;;;;;5060047;28;20418;-77
2021/10/10 07:37:04;;;;;;;28.30;10.17;;;5.50;97.30;;;;;;5053542;28;20229;-78
2021/10/10 07:39:29;;;;;;;23.83;10.70;;;5.70;97.30;;;;;;5057986;28;20176;-77
2021/10/10 07:41:55;;;;;;;25.80;12.17;;;5.80;97.30;;;;;;5058351;28;20261;-77
2021/10/10 07:44:23;;;;;;;21.93;10.30;;;5.90;97.30;;;;;;5054616;28;20200;-78
2021/10/10 07:46:56;;;;;;;23.70;10.13;;;6.00;97.30;;;;;;5061464;28;20262;-78
2021/10/10 07:49:22;;;;;;;17.43;9.17;;;6.10;97.30;;;;;;5059107;28;20418;-78
2021/10/10 07:51:47;;;;;;;24.83;9.40;;;6.20;97.30;;;;;;5066596;28;20431;-78
2021/10/10 07:54:13;;;;;;;19.47;8.47;;;6.30;97.30;;;;;;5065770;28;20770;-78
2021/10/10 07:56:39;;;;;;;21.40;9.17;;;6.40;97.30;;;;;;5067168;28;20199;-78
2021/10/10 07:59:04;;;;;;;24.03;10.70;;;6.50;97.30;;;;;;5060846;28;20168;-78
2021/10/10 08:01:30;;;;;;;24.40;10.73;;;6.50;97.30;;;;;;5054520;28;20220;-78
2021/10/10 08:03:55;;;;;;;19.47;9.63;;;6.60;97.30;;;;;;5058018;28;20207;-79
2021/10/10 08:06:21;;;;;;;19.70;8.60;;;6.70;97.30;;;;;;5066760;28;20187;-78
2021/10/10 08:08:46;;;;;;;23.13;9.80;;;6.80;97.30;;;;;;5069710;28;20604;-77
2021/10/10 08:11:12;;;;;;;17.23;8.10;;;6.90;97.30;;;;;;5062611;28;20190;-77
2021/10/10 08:13:38;;;;;;;19.73;8.73;;;7.10;97.30;;;;;;5065055;28;20207;-78
2021/10/10 08:16:03;;;;;;;24.20;10.47;;;7.20;97.30;;;;;;5060321;28;20652;-78
2021/10/10 08:18:29;;;;;;;19.17;8.53;;;7.30;97.30;;;;;;5061587;28;20679;-78
2021/10/10 08:20:55;;;;;;;20.20;9.03;;;7.40;97.30;;;;;;5073596;28;20202;-78
2021/10/10 08:23:20;;;;;;;23.20;8.77;;;7.60;97.30;;;;;;5068236;28;20175;-78
2021/10/10 08:25:46;;;;;;;19.53;9.03;;;7.70;97.30;;;;;;5055235;28;20168;-79
2021/10/10 08:28:12;;;;;;;21.57;7.43;;;7.80;97.30;;;;;;5066797;28;20482;-78
2021/10/10 08:30:37;;;;;;;17.87;8.73;;;7.90;97.30;;;;;;5071499;28;20176;-78
2021/10/10 08:33:03;;;;;;;23.10;8.90;;;8.00;97.30;;;;;;5057424;28;20176;-77
2021/10/10 08:35:29;;;;;;;20.43;9.60;;;8.10;97.30;;;;;;5065148;28;20187;-77
2021/10/10 08:37:55;;;;;;;18.20;9.03;;;8.20;97.30;;;;;;5054573;28;20458;-77
2021/10/10 08:40:20;;;;;;;20.03;7.83;;;8.30;97.30;;;;;;5071433;28;20691;-78
2021/10/10 08:42:49;;;;;;;20.30;8.30;;;8.30;97.30;;;;;;5064963;28;20559;-78
2021/10/10 08:45:21;;;;;;;17.43;7.07;;;8.50;97.30;;;;;;5071256;28;20679;-79
2021/10/10 08:47:50;;;;;;;22.27;9.60;;;8.60;97.30;;;;;;5071713;28;20507;-77
2021/10/10 08:50:17;;;;;;;14.70;7.47;;;8.70;97.30;;;;;;5052008;28;20501;-76
2021/10/10 08:52:44;;;;;;;19.17;9.70;;;8.80;97.30;;;;;;5052939;28;20649;-79
2021/10/10 08:55:11;;;;;;;17.60;8.63;;;8.90;97.30;;;;;;5056121;28;20441;-78
2021/10/10 08:57:37;;;;;;;21.33;9.27;;;9.00;97.30;;;;;;5059918;28;20471;-76
2021/10/10 09:00:07;;;;;;;17.23;8.43;;;9.00;97.30;;;;;;5063244;28;20531;-78
2021/10/10 09:02:33;;;;;;;19.53;8.43;;;9.10;97.30;;;;;;5053165;28;20402;-78
2021/10/10 09:05:08;;;;;;;19.37;9.50;;;9.20;97.10;;;;;;5052560;28;20437;-78
2021/10/10 09:07:33;;;;;;;15.90;8.20;;;9.30;97.00;;;;;;5072127;28;20425;-77
2021/10/10 09:10:31;;;;;;;18.27;8.90;;;9.40;96.80;;;;;;5057133;28;20835;-78
2021/10/10 09:13:09;;;;;;;23.07;8.90;;;9.60;96.70;;;;;;5047406;28;20219;-78
2021/10/10 09:15:37;;;;;;;15.37;7.97;;;9.70;96.80;;;;;;5072887;28;20441;-78
2021/10/10 09:18:04;;;;;;;13.40;7.10;;;9.80;96.90;;;;;;5056931;28;20456;-77
2021/10/10 09:20:35;;;;;;;22.40;7.70;;;9.90;95.60;;;;;;5065482;28;20427;-78
2021/10/10 09:23:02;;;;;;;24.53;8.87;;;10.00;95.50;;;;;;5058734;28;20423;-77
2021/10/10 09:25:28;;;;;;;23.97;8.87;;;10.10;94.70;;;;;;5061290;28;20483;-78
2021/10/10 09:27:53;;;;;;;17.33;8.50;;;10.30;95.10;;;;;;5058255;28;20426;-77
2021/10/10 09:30:24;;;;;;;19.60;8.53;;;10.30;94.70;;;;;;5051620;28;20649;-77
2021/10/10 09:32:55;;;;;;;17.93;8.37;;;10.40;94.70;;;;;;5067027;28;20183;-78
2021/10/10 09:35:29;;;;;;;16.00;8.00;;;10.50;94.30;;;;;;5059606;28;20445;-77
2021/10/10 09:38:11;;;;;;;21.70;9.00;;;10.60;94.30;;;;;;5072141;28;20990;-78
2021/10/10 09:43:31;;;;;;;12.70;7.47;;;10.80;93.40;;;;;;5053545;28;20437;-78
2021/10/10 09:45:58;;;;;;;17.30;8.07;;;11.00;94.00;;;;;;5071251;28;20464;-79
2021/10/10 09:48:33;;;;;;;19.03;9.33;;;11.00;93.50;;;;;;5070231;28;20168;-78
2021/10/10 09:50:59;;;;;;;18.17;8.90;;;11.10;93.70;;;;;;5068010;28;20413;-79
2021/10/10 09:53:33;;;;;;;18.20;8.57;;;11.20;93.10;;;;;;5072032;28;20483;-78
2021/10/10 09:56:07;;;;;;;21.83;10.27;;;11.40;93.40;;;;;;5072379;28;20789;-78
2021/10/10 09:58:38;;;;;;;20.10;9.10;;;11.50;93.30;;;;;;5070341;28;20446;-78
2021/10/10 10:01:22;;;;;;;19.63;8.10;;;11.60;93.00;;;;;;5066920;28;20468;-78
2021/10/10 10:04:03;;;;;;;26.00;8.20;;;11.70;93.60;;;;;;5060880;28;20437;-78
2021/10/10 10:06:33;;;;;;;17.60;8.60;;;11.90;93.20;;;;;;5059084;28;20494;-79
2021/10/10 10:09:03;;;;;;;22.40;8.13;;;12.00;92.00;;;;;;5057660;28;20799;-78
2021/10/10 10:11:37;;;;;;;20.40;8.30;;;12.00;91.70;;;;;;5062367;28;20496;-78
2021/10/10 10:14:09;;;;;;;15.70;7.60;;;12.10;91.00;;;;;;5059002;28;20983;-78
2021/10/10 10:16:40;;;;;;;17.53;9.50;;;12.20;90.00;;;;;;5062460;28;20456;-78
2021/10/10 10:19:09;;;;;;;17.50;8.20;;;12.30;91.00;;;;;;5063930;28;20405;-77
2021/10/10 10:21:35;;;;;;;17.10;8.03;;;12.40;90.10;;;;;;5061253;28;20555;-78
2021/10/10 10:24:02;;;;;;;15.10;7.60;;;12.50;90.10;;;;;;5056697;28;20446;-78
2021/10/10 10:26:33;;;;;;;15.47;9.13;;;12.70;89.80;;;;;;5061471;28;20175;-78
2021/10/10 10:29:02;;;;;;;23.73;9.27;;;12.70;89.00;;;;;;5071667;28;20416;-78
2021/10/10 10:31:32;;;;;;;23.10;8.60;;;12.80;89.30;;;;;;5071806;28;20480;-78
2021/10/10 10:34:18;;;;;;;14.53;8.03;;;12.90;89.80;;;;;;5053156;28;20474;-78
2021/10/10 10:36:54;;;;;;;17.33;8.10;;;13.10;90.60;;;;;;5054338;28;20541;-78
2021/10/10 10:39:43;;;;;;;12.30;7.50;;;13.20;89.30;;;;;;5057563;28;20410;-77
2021/10/10 10:42:22;;;;;;;15.57;8.57;;;13.30;88.30;;;;;;5056812;28;20413;-78
2021/10/10 10:44:51;;;;;;;17.83;8.13;;;13.40;88.80;;;;;;5049313;28;20437;-79
2021/10/10 10:47:19;;;;;;;21.10;8.60;;;13.50;87.90;;;;;;5049241;28;20414;-79
2021/10/10 10:49:54;;;;;;;21.10;8.00;;;13.60;87.40;;;;;;5049334;28;20422;-79
2021/10/10 10:52:26;;;;;;;21.60;8.50;;;13.70;86.70;;;;;;5048983;28;20420;-78
2021/10/10 10:54:53;;;;;;;21.60;8.70;;;13.80;86.10;;;;;;5049939;28;20437;-78
2021/10/10 10:57:38;;;;;;;14.77;7.40;;;13.90;85.50;;;;;;5055060;28;20820;-78
2021/10/10 11:00:08;;;;;;;15.37;7.47;;;13.90;84.90;;;;;;5056507;28;20469;-78
2021/10/10 11:02:58;;;;;;;15.20;7.43;;;13.90;86.80;;;;;;5048271;28;20827;-79
2021/10/10 11:05:39;;;;;;;20.30;8.20;;;14.00;86.30;;;;;;5047929;28;20449;-78
2021/10/10 11:08:29;;;;;;;14.47;7.43;;;13.90;84.10;;;;;;5048505;28;20419;-79
2021/10/10 11:11:04;;;;;;;17.87;7.87;;;13.90;84.90;;;;;;5048467;28;20456;-78
2021/10/10 11:13:37;;;;;;;12.67;6.60;;;14.00;84.70;;;;;;5050808;28;20472;-78
2021/10/10 11:16:07;;;;;;;14.30;7.07;;;14.20;85.20;;;;;;5049713;28;20414;-78
2021/10/10 11:18:33;;;;;;;11.17;5.90;;;14.40;84.00;;;;;;5053541;28;20428;-78
2021/10/10 11:21:02;;;;;;;11.33;5.77;;;14.50;82.40;;;;;;5072255;28;20440;-79
2021/10/10 11:23:28;;;;;;;13.23;5.97;;;14.60;81.40;;;;;;5091074;28;20474;-77
2021/10/10 11:25:56;;;;;;;12.60;7.33;;;14.70;81.60;;;;;;5089905;28;20420;-78
2021/10/10 11:28:38;;;;;;;9.20;5.07;;;14.80;82.20;;;;;;5090219;28;20747;-79
2021/10/10 11:31:16;;;;;;;13.13;6.87;;;14.90;79.90;;;;;;5090161;28;20416;-78
2021/10/10 11:33:47;;;;;;;14.63;6.70;;;14.90;80.20;;;;;;5091191;28;20775;-78
2021/10/10 11:36:16;;;;;;;11.80;4.67;;;15.00;80.70;;;;;;5090483;28;20421;-78
2021/10/10 11:38:54;;;;;;;11.37;5.60;;;15.20;80.30;;;;;;5090394;28;20405;-79
2021/10/10 11:41:21;;;;;;;10.20;5.70;;;15.40;79.20;;;;;;5089805;28;20974;-77
2021/10/10 11:43:57;;;;;;;9.80;5.30;;;15.60;78.40;;;;;;5089355;28;20810;-77
2021/10/10 11:46:24;;;;;;;15.83;5.70;;;15.70;77.90;;;;;;5091035;28;20779;-78
2021/10/10 11:48:51;;;;;;;12.33;5.93;;;15.90;78.80;;;;;;5090177;28;20968;-77
2021/10/10 11:51:37;;;;;;;11.80;5.00;;;16.00;78.50;;;;;;5089555;28;20423;-77
2021/10/10 11:54:05;;;;;;;9.90;5.73;;;16.20;77.20;;;;;;5090653;28;20424;-77
2021/10/10 11:56:31;;;;;;;8.00;4.80;;;16.30;78.00;;;;;;5089811;28;20455;-77
2021/10/10 11:59:13;;;;;;;10.00;5.70;;;16.40;77.30;;;;;;5089334;28;20409;-78
2021/10/10 12:01:39;;;;;;;12.40;5.50;;;16.60;78.50;;;;;;5089532;28;20719;-78
2021/10/10 12:04:05;;;;;;;8.07;4.47;;;16.70;75.40;;;;;;5089194;28;21075;-77
2021/10/10 12:06:31;;;;;;;11.50;5.47;;;16.70;75.50;;;;;;5090886;28;20416;-78
2021/10/10 12:09:11;;;;;;;13.00;4.77;;;16.80;76.20;;;;;;5089596;28;20941;-78
2021/10/10 12:11:39;;;;;;;10.00;5.17;;;16.90;76.70;;;;;;5089528;28;20193;-77
2021/10/10 12:14:05;;;;;;;9.83;5.47;;;16.80;75.60;;;;;;5089479;28;20523;-77
2021/10/10 12:16:41;;;;;;;8.83;5.47;;;16.80;76.60;;;;;;5091884;28;20449;-77
2021/10/10 12:19:07;;;;;;;13.23;6.10;;;16.90;77.30;;;;;;5092481;28;20419;-77
2021/10/10 12:21:35;;;;;;;11.60;5.47;;;17.00;77.20;;;;;;5092359;28;20418;-77
2021/10/10 12:24:16;;;;;;;10.87;5.97;;;17.20;77.00;;;;;;5093934;28;20424;-76
2021/10/10 12:26:55;;;;;;;9.27;5.60;;;17.30;76.20;;;;;;5092307;28;20755;-76
2021/10/10 12:29:30;;;;;;;7.33;4.60;;;17.30;74.80;;;;;;5092028;28;20412;-75
2021/10/10 12:32:19;;;;;;;7.73;5.10;;;17.40;74.10;;;;;;5092592;28;20952;-75
2021/10/10 12:34:46;;;;;;;11.40;5.60;;;17.60;75.40;;;;;;5100361;28;20836;-76
2021/10/10 12:37:24;;;;;;;9.67;5.47;;;17.70;74.90;;;;;;5099696;28;20528;-76
2021/10/10 12:39:50;;;;;;;10.20;5.50;;;17.80;74.50;;;;;;5100030;28;20406;-76
2021/10/10 12:42:21;;;;;;;10.60;5.53;;;17.80;74.20;;;;;;5100600;28;20462;-75
2021/10/10 12:45:07;;;;;;;12.80;5.67;;;17.80;73.30;;;;;;5099937;28;20428;-75
2021/10/10 12:47:32;;;;;;;20.03;10.27;;;17.70;73.30;;;;;;5099216;28;20412;-76
2021/10/10 12:49:58;;;;;;;10.07;6.57;;;17.80;75.10;;;;;;5098866;28;20404;-75
2021/10/10 12:52:38;;;;;;;8.63;5.13;;;17.90;74.10;;;;;;5100251;28;20736;-76
2021/10/10 12:55:18;;;;;;;12.33;5.27;;;17.90;73.90;;;;;;5100255;28;20216;-76
2021/10/10 12:57:50;;;;;;;8.97;5.40;;;18.10;75.10;;;;;;5098761;28;20460;-76